Time,TemperatureF,DewpointF,PressureIn,WindDirection,WindDirectionDegrees,WindSpeedMPH,WindSpeedGustMPH,Humidity,HourlyPrecipIn,Conditions,Clouds,dailyrainin,SoftwareType,DateUTC
2013-06-03 00:01:00,76.0,72.9,29.87,South,177,1.0,4.0,90,0.00,,---,0.00,VWS V14.01,2013-06-03 04:01:00,
2013-06-03 00:06:00,76.1,73.0,29.87,South,176,0.0,0.0,90,0.00,,---,0.00,VWS V14.01,2013-06-03 04:06:00,
2013-06-03 00:11:00,76.1,73.0,29.87,South,177,4.0,5.0,90,0.00,,---,0.00,VWS V14.01,2013-06-03 04:11:00,
2013-06-03 00:16:00,76.1,73.0,29.87,South,177,5.0,6.0,90,0.00,,---,0.00,VWS V14.01,2013-06-03 04:16:00,
2013-06-03 00:21:00,76.0,72.9,29.87,South,177,2.0,2.0,90,0.00,,---,0.00,VWS V14.01,2013-06-03 04:21:00,
2013-06-03 00:27:00,76.0,72.9,29.87,South,177,0.0,0.0,90,0.00,,---,0.00,VWS V14.01,2013-06-03 04:27:00,
2013-06-03 00:32:00,76.0,72.9,29.87,South,177,0.0,0.0,90,0.00,,---,0.00,VWS V14.01,2013-06-03 04:32:00,
2013-06-03 00:37:00,75.9,73.1,29.87,South,177,0.0,0.0,91,0.00,,---,0.00,VWS V14.01,2013-06-03 04:37:00,
2013-06-03 00:42:00,75.8,73.0,29.87,South,176,0.0,0.0,91,0.00,,---,0.00,VWS V14.01,2013-06-03 04:42:00,
2013-06-03 00:47:00,75.8,73.0,29.87,South,177,0.0,0.0,91,0.00,,---,0.00,VWS V14.01,2013-06-03 04:47:00,
2013-06-03 00:52:00,75.8,73.0,29.87,South,176,0.0,0.0,91,0.00,,---,0.00,VWS V14.01,2013-06-03 04:52:00,
2013-06-03 00:57:00,75.7,72.9,29.87,South,177,0.0,0.0,91,0.00,,---,0.00,VWS V14.01,2013-06-03 04:57:00,
2013-06-03 01:02:00,75.7,72.9,29.86,South,177,0.0,0.0,91,0.00,,---,0.00,VWS V14.01,2013-06-03 05:02:00,
2013-06-03 01:07:00,75.7,72.9,29.86,South,177,0.0,0.0,91,0.00,,---,0.00,VWS V14.01,2013-06-03 05:07:00,
2013-06-03 01:12:00,75.6,72.8,29.86,South,177,0.0,0.0,91,0.00,,---,0.00,VWS V14.01,2013-06-03 05:12:00,
2013-06-03 01:17:00,75.6,72.8,29.85,South,176,10.0,10.0,91,0.00,,---,0.00,VWS V14.01,2013-06-03 05:17:00,
2013-06-03 01:22:00,75.7,72.9,29.85,South,177,6.0,9.0,91,0.00,,---,0.00,VWS V14.01,2013-06-03 05:22:00,
2013-06-03 01:27:00,75.7,72.9,29.85,South,177,10.0,11.0,91,0.00,,---,0.00,VWS V14.01,2013-06-03 05:27:00,
2013-06-03 01:32:00,75.7,72.9,29.85,South,177,8.0,11.0,91,0.00,,---,0.00,VWS V14.01,2013-06-03 05:32:00,
2013-06-03 01:37:00,75.7,73.2,29.85,South,177,8.0,11.0,92,0.00,,---,0.00,VWS V14.01,2013-06-03 05:37:00,
2013-06-03 01:42:00,75.7,73.2,29.85,South,177,7.0,10.0,92,0.00,,---,0.00,VWS V14.01,2013-06-03 05:42:00,
2013-06-03 01:47:00,75.6,73.1,29.84,South,177,7.0,10.0,92,0.00,,---,0.00,VWS V14.01,2013-06-03 05:47:00,
2013-06-03 01:52:00,75.5,72.7,29.84,South,176,9.0,10.0,91,0.00,,---,0.00,VWS V14.01,2013-06-03 05:52:00,
2013-06-03 01:57:00,75.5,73.0,29.84,South,177,9.0,10.0,92,0.00,,---,0.00,VWS V14.01,2013-06-03 05:57:00,
2013-06-03 02:02:00,75.5,73.0,29.84,South,177,8.0,10.0,92,0.00,,---,0.00,VWS V14.01,2013-06-03 06:02:00,
2013-06-03 02:07:00,75.5,73.0,29.84,South,176,9.0,10.0,92,0.00,,---,0.00,VWS V14.01,2013-06-03 06:07:00,
2013-06-03 02:12:00,75.6,73.1,29.84,South,177,0.0,6.0,92,0.00,,---,0.00,VWS V14.01,2013-06-03 06:12:00,
2013-06-03 02:17:00,75.6,73.1,29.85,South,177,0.0,0.0,92,0.00,,---,0.00,VWS V14.01,2013-06-03 06:17:00,
2013-06-03 02:22:00,75.5,73.0,29.85,South,176,0.0,0.0,92,0.00,,---,0.00,VWS V14.01,2013-06-03 06:22:00,
2013-06-03 02:27:00,75.5,73.0,29.85,South,177,0.0,0.0,92,0.00,,---,0.00,VWS V14.01,2013-06-03 06:27:00,
2013-06-03 02:32:00,75.4,72.9,29.84,South,177,0.0,0.0,92,0.00,,---,0.00,VWS V14.01,2013-06-03 06:32:00,
2013-06-03 02:37:00,75.4,72.9,29.84,South,177,0.0,0.0,92,0.00,,---,0.00,VWS V14.01,2013-06-03 06:37:00,
2013-06-03 02:42:00,75.4,72.9,29.84,South,176,7.0,8.0,92,0.00,,---,0.00,VWS V14.01,2013-06-03 06:42:00,
2013-06-03 02:47:00,75.3,72.8,29.84,South,177,0.0,0.0,92,0.00,,---,0.00,VWS V14.01,2013-06-03 06:47:00,
2013-06-03 02:52:00,75.4,72.9,29.84,South,177,0.0,0.0,92,0.00,,---,0.00,VWS V14.01,2013-06-03 06:52:00,
2013-06-03 02:57:00,75.4,72.9,29.84,South,177,0.0,0.0,92,0.00,,---,0.00,VWS V14.01,2013-06-03 06:57:00,
2013-06-03 03:02:00,75.4,72.9,29.84,South,177,0.0,0.0,92,0.00,,---,0.00,VWS V14.01,2013-06-03 07:02:00,
2013-06-03 03:07:00,75.4,72.9,29.84,South,177,7.0,9.0,92,0.00,,---,0.00,VWS V14.01,2013-06-03 07:07:00,
2013-06-03 03:12:00,75.4,72.9,29.84,South,176,6.0,6.0,92,0.00,,---,0.00,VWS V14.01,2013-06-03 07:12:00,
2013-06-03 03:17:00,75.4,73.2,29.83,South,177,0.0,0.0,93,0.00,,---,0.00,VWS V14.01,2013-06-03 07:17:00,
2013-06-03 03:22:00,75.5,73.3,29.83,South,177,0.0,0.0,93,0.00,,---,0.00,VWS V14.01,2013-06-03 07:22:00,
2013-06-03 03:27:00,75.5,73.3,29.83,South,176,0.0,0.0,93,0.00,,---,0.00,VWS V14.01,2013-06-03 07:27:00,
2013-06-03 03:32:00,75.5,73.3,29.83,South,177,0.0,0.0,93,0.00,,---,0.00,VWS V14.01,2013-06-03 07:32:00,
2013-06-03 03:37:00,75.4,73.2,29.83,South,177,4.0,6.0,93,0.00,,---,0.00,VWS V14.01,2013-06-03 07:37:00,
2013-06-03 03:42:00,75.4,73.2,29.83,South,177,0.0,4.0,93,0.00,,---,0.00,VWS V14.01,2013-06-03 07:42:00,
2013-06-03 03:47:00,75.4,73.2,29.82,South,176,0.0,5.0,93,0.00,,---,0.00,VWS V14.01,2013-06-03 07:47:00,
2013-06-03 03:52:00,75.4,73.2,29.82,South,177,2.0,6.0,93,0.00,,---,0.00,VWS V14.01,2013-06-03 07:52:00,
2013-06-03 03:57:00,75.5,73.3,29.82,South,177,0.0,4.0,93,0.00,,---,0.00,VWS V14.01,2013-06-03 07:57:00,
2013-06-03 04:02:00,75.5,73.3,29.82,South,177,2.0,4.0,93,0.00,,---,0.00,VWS V14.01,2013-06-03 08:02:00,
2013-06-03 04:07:00,75.5,73.3,29.82,South,177,2.0,5.0,93,0.00,,---,0.00,VWS V14.01,2013-06-03 08:07:00,
2013-06-03 04:12:00,75.5,73.3,29.82,South,177,6.0,6.0,93,0.00,,---,0.00,VWS V14.01,2013-06-03 08:12:00,
2013-06-03 04:17:00,75.5,73.3,29.82,South,177,2.0,2.0,93,0.00,,---,0.00,VWS V14.01,2013-06-03 08:17:00,
2013-06-03 04:22:00,75.5,73.3,29.82,South,177,4.0,4.0,93,0.00,,---,0.00,VWS V14.01,2013-06-03 08:22:00,
2013-06-03 04:27:00,75.5,73.3,29.82,South,177,4.0,7.0,93,0.00,,---,0.00,VWS V14.01,2013-06-03 08:27:00,
2013-06-03 04:32:00,75.5,73.3,29.82,South,177,2.0,4.0,93,0.00,,---,0.00,VWS V14.01,2013-06-03 08:32:00,
2013-06-03 04:37:00,75.4,73.2,29.82,South,177,2.0,2.0,93,0.00,,---,0.00,VWS V14.01,2013-06-03 08:37:00,
2013-06-03 04:42:00,75.4,73.2,29.82,South,177,0.0,0.0,93,0.00,,---,0.00,VWS V14.01,2013-06-03 08:42:00,
2013-06-03 04:47:00,75.4,73.2,29.82,South,176,2.0,2.0,93,0.00,,---,0.00,VWS V14.01,2013-06-03 08:47:00,
2013-06-03 04:52:00,75.3,73.1,29.82,South,177,0.0,7.0,93,0.00,,---,0.00,VWS V14.01,2013-06-03 08:52:00,
2013-06-03 04:57:00,75.2,73.0,29.82,South,177,0.0,0.0,93,0.00,,---,0.00,VWS V14.01,2013-06-03 08:57:00,
2013-06-03 05:02:00,75.1,73.3,29.82,South,177,0.0,0.0,94,0.00,,---,0.00,VWS V14.01,2013-06-03 09:02:00,
2013-06-03 05:07:00,75.1,73.3,29.82,South,177,0.0,0.0,94,0.00,,---,0.00,VWS V14.01,2013-06-03 09:07:00,
2013-06-03 05:12:00,75.0,73.2,29.82,South,177,0.0,0.0,94,0.00,,---,0.00,VWS V14.01,2013-06-03 09:12:00,
2013-06-03 05:17:00,75.0,73.2,29.82,South,176,0.0,0.0,94,0.00,,---,0.00,VWS V14.01,2013-06-03 09:17:00,
2013-06-03 05:22:00,75.0,73.2,29.82,South,177,0.0,0.0,94,0.00,,---,0.00,VWS V14.01,2013-06-03 09:22:00,
2013-06-03 05:27:00,75.0,73.2,29.82,South,176,0.0,0.0,94,0.00,,---,0.00,VWS V14.01,2013-06-03 09:27:00,
2013-06-03 05:32:00,75.0,73.5,29.82,South,177,11.0,11.0,95,0.00,,---,0.00,VWS V14.01,2013-06-03 09:32:00,
2013-06-03 05:37:00,74.9,73.4,29.82,South,176,6.0,9.0,95,0.00,,---,0.00,VWS V14.01,2013-06-03 09:37:00,
2013-06-03 05:42:00,74.9,73.4,29.82,South,177,7.0,8.0,95,0.00,,---,0.00,VWS V14.01,2013-06-03 09:42:00,
2013-06-03 05:47:00,74.9,73.4,29.82,South,177,10.0,10.0,95,0.00,,---,0.00,VWS V14.01,2013-06-03 09:47:00,
2013-06-03 05:52:00,74.8,73.3,29.82,South,177,7.0,10.0,95,0.00,,---,0.00,VWS V14.01,2013-06-03 09:52:00,
2013-06-03 05:57:00,74.8,73.3,29.82,South,177,7.0,10.0,95,0.00,,---,0.00,VWS V14.01,2013-06-03 09:57:00,
2013-06-03 06:02:00,74.7,73.2,29.83,South,176,9.0,9.0,95,0.00,,---,0.00,VWS V14.01,2013-06-03 10:02:00,
2013-06-03 06:07:00,74.7,73.2,29.83,South,176,9.0,9.0,95,0.00,,---,0.00,VWS V14.01,2013-06-03 10:07:00,
2013-06-03 06:12:00,74.8,73.3,29.83,South,176,10.0,11.0,95,0.00,,---,0.00,VWS V14.01,2013-06-03 10:12:00,
2013-06-03 06:17:00,74.7,73.2,29.83,South,177,9.0,11.0,95,0.00,,---,0.00,VWS V14.01,2013-06-03 10:17:00,
2013-06-03 06:22:00,74.6,73.1,29.83,South,177,8.0,11.0,95,0.00,,---,0.00,VWS V14.01,2013-06-03 10:22:00,
2013-06-03 06:27:00,74.6,73.1,29.83,South,177,5.0,8.0,95,0.00,,---,0.00,VWS V14.01,2013-06-03 10:27:00,
2013-06-03 06:32:00,74.6,73.1,29.84,South,177,2.0,7.0,95,0.00,,---,0.00,VWS V14.01,2013-06-03 10:32:00,
2013-06-03 06:37:00,74.6,73.1,29.84,South,177,7.0,8.0,95,0.00,,---,0.00,VWS V14.01,2013-06-03 10:37:00,
2013-06-03 06:42:00,74.7,73.5,29.84,South,176,7.0,9.0,96,0.00,,---,0.00,VWS V14.01,2013-06-03 10:42:00,
2013-06-03 06:47:00,74.7,73.5,29.84,South,177,0.0,7.0,96,0.00,,---,0.00,VWS V14.01,2013-06-03 10:47:00,
2013-06-03 06:52:00,74.7,73.5,29.84,South,177,0.0,0.0,96,0.00,,---,0.00,VWS V14.01,2013-06-03 10:52:00,
2013-06-03 06:57:00,74.8,73.6,29.84,South,176,6.0,7.0,96,0.00,,---,0.00,VWS V14.01,2013-06-03 10:57:00,
2013-06-03 07:02:00,74.8,73.6,29.85,South,177,0.0,0.0,96,0.00,,---,0.00,VWS V14.01,2013-06-03 11:02:00,
2013-06-03 07:07:00,74.9,73.7,29.85,South,177,0.0,0.0,96,0.00,,---,0.00,VWS V14.01,2013-06-03 11:07:00,
2013-06-03 07:12:00,74.9,73.7,29.85,South,176,0.0,0.0,96,0.00,,---,0.00,VWS V14.01,2013-06-03 11:12:00,
2013-06-03 07:17:00,74.9,73.7,29.85,South,177,0.0,5.0,96,0.00,,---,0.00,VWS V14.01,2013-06-03 11:17:00,
2013-06-03 07:22:00,75.0,73.8,29.85,South,177,2.0,5.0,96,0.00,,---,0.00,VWS V14.01,2013-06-03 11:22:00,
2013-06-03 07:27:00,75.0,73.8,29.85,South,177,7.0,7.0,96,0.00,,---,0.00,VWS V14.01,2013-06-03 11:27:00,
2013-06-03 07:32:00,75.0,73.8,29.85,South,177,0.0,0.0,96,0.00,,---,0.00,VWS V14.01,2013-06-03 11:32:00,
2013-06-03 07:37:00,75.1,73.9,29.85,South,177,0.0,0.0,96,0.00,,---,0.00,VWS V14.01,2013-06-03 11:37:00,
2013-06-03 07:42:00,75.3,74.1,29.85,South,177,0.0,0.0,96,0.00,,---,0.00,VWS V14.01,2013-06-03 11:42:00,
2013-06-03 07:47:00,75.4,74.2,29.85,South,177,5.0,10.0,96,0.00,,---,0.00,VWS V14.01,2013-06-03 11:47:00,
2013-06-03 07:52:00,75.6,74.1,29.85,South,177,6.0,7.0,95,0.00,,---,0.00,VWS V14.01,2013-06-03 11:52:00,
2013-06-03 07:57:00,75.7,74.5,29.85,South,177,4.0,8.0,96,0.00,,---,0.00,VWS V14.01,2013-06-03 11:57:00,
2013-06-03 08:02:00,75.8,74.3,29.86,South,177,6.0,9.0,95,0.00,,---,0.00,VWS V14.01,2013-06-03 12:02:00,
2013-06-03 08:07:00,76.1,74.6,29.86,South,177,4.0,4.0,95,0.00,,---,0.00,VWS V14.01,2013-06-03 12:07:00,
2013-06-03 08:12:00,76.4,74.9,29.86,South,177,5.0,7.0,95,0.00,,---,0.00,VWS V14.01,2013-06-03 12:12:00,
2013-06-03 08:17:00,76.3,74.8,29.86,South,177,7.0,7.0,95,0.00,,---,0.00,VWS V14.01,2013-06-03 12:17:00,
2013-06-03 08:22:00,76.5,74.7,29.86,South,177,0.0,1.0,94,0.00,,---,0.00,VWS V14.01,2013-06-03 12:22:00,
2013-06-03 08:27:00,76.8,74.9,29.86,South,177,6.0,7.0,94,0.00,,---,0.00,VWS V14.01,2013-06-03 12:27:00,
2013-06-03 08:32:00,77.1,74.9,29.86,South,177,5.0,8.0,93,0.00,,---,0.00,VWS V14.01,2013-06-03 12:32:00,
2013-06-03 08:37:00,77.5,75.3,29.86,South,177,2.0,8.0,93,0.00,,---,0.00,VWS V14.01,2013-06-03 12:37:00,
2013-06-03 08:42:00,77.8,75.3,29.86,South,177,10.0,10.0,92,0.00,,---,0.00,VWS V14.01,2013-06-03 12:42:00,
2013-06-03 08:47:00,77.9,75.1,29.87,South,177,5.0,9.0,91,0.00,,---,0.00,VWS V14.01,2013-06-03 12:47:00,
2013-06-03 08:52:00,78.3,75.1,29.87,South,177,7.0,13.0,90,0.00,,---,0.00,VWS V14.01,2013-06-03 12:52:00,
2013-06-03 08:57:00,78.6,75.4,29.87,South,177,6.0,11.0,90,0.00,,---,0.00,VWS V14.01,2013-06-03 12:57:00,
2013-06-03 09:02:00,78.8,75.3,29.87,South,177,1.0,7.0,89,0.00,,---,0.00,VWS V14.01,2013-06-03 13:02:00,
2013-06-03 09:07:00,79.1,75.2,29.87,South,177,0.0,8.0,88,0.00,,---,0.00,VWS V14.01,2013-06-03 13:07:00,
2013-06-03 09:12:00,79.4,75.2,29.87,South,177,8.0,13.0,87,0.00,,---,0.00,VWS V14.01,2013-06-03 13:12:00,
2013-06-03 09:17:00,79.4,74.8,29.87,South,177,8.0,11.0,86,0.00,,---,0.00,VWS V14.01,2013-06-03 13:17:00,
2013-06-03 09:22:00,79.6,74.7,29.87,South,177,9.0,13.0,85,0.00,,---,0.00,VWS V14.01,2013-06-03 13:22:00,
2013-06-03 09:27:00,79.8,74.5,29.87,South,177,6.0,11.0,84,0.00,,---,0.00,VWS V14.01,2013-06-03 13:27:00,
2013-06-03 09:32:00,80.2,74.9,29.87,South,177,9.0,10.0,84,0.00,,---,0.00,VWS V14.01,2013-06-03 13:32:00,
2013-06-03 09:37:00,80.5,74.9,29.87,South,177,10.0,10.0,83,0.00,,---,0.00,VWS V14.01,2013-06-03 13:37:00,
2013-06-03 09:42:00,80.7,74.7,29.87,South,177,10.0,10.0,82,0.00,,---,0.00,VWS V14.01,2013-06-03 13:42:00,
2013-06-03 09:47:00,80.9,74.5,29.87,South,177,8.0,11.0,81,0.00,,---,0.00,VWS V14.01,2013-06-03 13:47:00,
2013-06-03 09:52:00,81.3,74.9,29.87,South,177,10.0,10.0,81,0.00,,---,0.00,VWS V14.01,2013-06-03 13:52:00,
2013-06-03 09:57:00,81.6,74.5,29.87,South,177,0.0,7.0,79,0.00,,---,0.00,VWS V14.01,2013-06-03 13:57:00,
2013-06-03 10:02:00,81.7,74.2,29.87,South,177,9.0,11.0,78,0.00,,---,0.00,VWS V14.01,2013-06-03 14:02:00,
2013-06-03 10:08:00,81.8,74.3,29.87,South,177,7.0,8.0,78,0.00,,---,0.00,VWS V14.01,2013-06-03 14:08:00,
2013-06-03 10:12:00,82.0,74.5,29.87,South,177,0.0,0.0,78,0.00,,---,0.00,VWS V14.01,2013-06-03 14:12:00,
2013-06-03 10:17:00,82.3,74.8,29.87,South,177,7.0,7.0,78,0.00,,---,0.00,VWS V14.01,2013-06-03 14:17:00,
2013-06-03 10:22:00,82.9,74.6,29.87,South,177,5.0,10.0,76,0.00,,---,0.00,VWS V14.01,2013-06-03 14:22:00,
2013-06-03 10:27:00,82.7,74.0,29.87,South,176,8.0,11.0,75,0.00,,---,0.00,VWS V14.01,2013-06-03 14:27:00,
2013-06-03 10:32:00,82.8,74.5,29.88,South,176,0.0,7.0,76,0.00,,---,0.00,VWS V14.01,2013-06-03 14:32:00,
2013-06-03 10:37:00,82.9,74.2,29.88,South,177,0.0,0.0,75,0.00,,---,0.00,VWS V14.01,2013-06-03 14:37:00,
2013-06-03 10:42:00,82.9,75.3,29.88,South,176,0.0,0.0,78,0.00,,---,0.00,VWS V14.01,2013-06-03 14:42:00,
2013-06-03 10:47:00,82.3,75.5,29.88,South,176,0.0,0.0,80,0.00,,---,0.00,VWS V14.01,2013-06-03 14:47:00,
2013-06-03 10:52:00,81.2,74.8,29.88,South,176,0.0,1.0,81,0.00,,---,0.00,VWS V14.01,2013-06-03 14:52:00,
2013-06-03 10:57:00,81.0,75.0,29.88,South,177,1.0,6.0,82,0.00,,---,0.00,VWS V14.01,2013-06-03 14:57:00,
2013-06-03 11:02:00,80.7,74.0,29.88,South,177,6.0,8.0,80,0.00,,---,0.00,VWS V14.01,2013-06-03 15:02:00,
2013-06-03 11:07:00,81.4,74.3,29.88,South,177,0.0,1.0,79,0.00,,---,0.00,VWS V14.01,2013-06-03 15:07:00,
2013-06-03 11:13:00,82.7,75.2,29.88,South,176,0.0,1.0,78,0.00,,---,0.00,VWS V14.01,2013-06-03 15:13:00,
2013-06-03 11:18:00,83.4,74.7,29.88,South,176,0.0,4.0,75,0.00,,---,0.00,VWS V14.01,2013-06-03 15:18:00,
2013-06-03 11:23:00,83.8,75.8,29.88,South,176,0.0,0.0,77,0.00,,---,0.00,VWS V14.01,2013-06-03 15:23:00,
2013-06-03 11:28:00,82.8,75.6,29.88,South,176,0.0,0.0,79,0.00,,---,0.00,VWS V14.01,2013-06-03 15:28:00,
2013-06-03 11:33:00,81.9,75.5,29.88,South,177,9.0,11.0,81,0.00,,---,0.00,VWS V14.01,2013-06-03 15:33:00,
2013-06-03 11:38:00,81.1,74.7,29.88,South,176,6.0,10.0,81,0.00,,---,0.00,VWS V14.01,2013-06-03 15:38:00,
2013-06-03 11:43:00,81.0,75.3,29.88,South,177,6.0,7.0,83,0.00,,---,0.00,VWS V14.01,2013-06-03 15:43:00,
2013-06-03 11:48:00,80.7,75.4,29.88,South,176,7.0,9.0,84,0.00,,---,0.00,VWS V14.01,2013-06-03 15:48:00,
2013-06-03 11:53:00,80.4,75.5,29.88,South,176,7.0,7.0,85,0.00,,---,0.00,VWS V14.01,2013-06-03 15:53:00,
2013-06-03 11:58:00,80.3,75.7,29.88,South,177,7.0,9.0,86,0.00,,---,0.00,VWS V14.01,2013-06-03 15:58:00,
2013-06-03 12:03:00,80.3,75.7,29.88,South,176,8.0,9.0,86,0.00,,---,0.00,VWS V14.01,2013-06-03 16:03:00,
2013-06-03 12:08:00,80.1,75.5,29.88,South,177,6.0,8.0,86,0.00,,---,0.00,VWS V14.01,2013-06-03 16:08:00,
2013-06-03 12:13:00,80.1,75.9,29.88,South,176,8.0,10.0,87,0.00,,---,0.00,VWS V14.01,2013-06-03 16:13:00,
2013-06-03 12:18:00,80.0,75.8,29.87,South,176,8.0,9.0,87,0.00,,---,0.00,VWS V14.01,2013-06-03 16:18:00,
2013-06-03 12:23:00,80.0,75.8,29.87,South,176,9.0,10.0,87,0.00,,---,0.00,VWS V14.01,2013-06-03 16:23:00,
2013-06-03 12:28:00,80.2,76.0,29.87,South,177,9.0,10.0,87,0.00,,---,0.00,VWS V14.01,2013-06-03 16:28:00,
2013-06-03 12:33:00,80.2,75.6,29.87,South,177,9.0,10.0,86,0.00,,---,0.00,VWS V14.01,2013-06-03 16:33:00,
2013-06-03 12:38:00,80.5,76.3,29.87,South,176,5.0,9.0,87,0.00,,---,0.00,VWS V14.01,2013-06-03 16:38:00,
2013-06-03 12:43:00,81.1,76.5,29.87,South,176,8.0,8.0,86,0.00,,---,0.00,VWS V14.01,2013-06-03 16:43:00,
2013-06-03 12:48:00,81.2,76.3,29.87,South,177,7.0,9.0,85,0.00,,---,0.00,VWS V14.01,2013-06-03 16:48:00,
2013-06-03 12:53:00,81.3,76.4,29.87,South,176,7.0,9.0,85,0.00,,---,0.00,VWS V14.01,2013-06-03 16:53:00,
2013-06-03 12:58:00,81.4,76.5,29.87,South,176,0.0,10.0,85,0.00,,---,0.00,VWS V14.01,2013-06-03 16:58:00,
2013-06-03 13:03:00,81.8,76.5,29.85,South,176,0.0,2.0,84,0.00,,---,0.00,VWS V14.01,2013-06-03 17:03:00,
2013-06-03 13:08:00,81.9,76.6,29.85,South,176,10.0,10.0,84,0.00,,---,0.00,VWS V14.01,2013-06-03 17:08:00,
2013-06-03 13:13:00,81.5,75.8,29.85,South,176,10.0,11.0,83,0.00,,---,0.00,VWS V14.01,2013-06-03 17:13:00,
2013-06-03 13:18:00,81.2,75.9,29.85,South,176,8.0,9.0,84,0.00,,---,0.00,VWS V14.01,2013-06-03 17:18:00,
2013-06-03 13:23:00,81.4,76.1,29.85,South,176,10.0,11.0,84,0.00,,---,0.00,VWS V14.01,2013-06-03 17:23:00,
2013-06-03 13:28:00,81.4,76.1,29.85,South,177,0.0,9.0,84,0.00,,---,0.00,VWS V14.01,2013-06-03 17:28:00,
2013-06-03 13:33:00,81.4,76.1,29.85,South,177,6.0,10.0,84,0.00,,---,0.00,VWS V14.01,2013-06-03 17:33:00,
2013-06-03 13:38:00,81.2,75.9,29.85,South,177,0.0,8.0,84,0.00,,---,0.00,VWS V14.01,2013-06-03 17:38:00,
2013-06-03 13:43:00,81.2,75.9,29.85,South,176,7.0,11.0,84,0.00,,---,0.00,VWS V14.01,2013-06-03 17:43:00,
2013-06-03 13:48:00,81.2,75.9,29.84,South,177,6.0,8.0,84,0.00,,---,0.00,VWS V14.01,2013-06-03 17:48:00,
2013-06-03 13:53:00,81.3,76.0,29.84,South,176,5.0,11.0,84,0.00,,---,0.00,VWS V14.01,2013-06-03 17:53:00,
2013-06-03 13:58:00,81.1,75.8,29.84,South,177,8.0,11.0,84,0.00,,---,0.00,VWS V14.01,2013-06-03 17:58:00,
2013-06-03 14:03:00,80.7,75.8,29.84,South,177,7.0,11.0,85,0.00,,---,0.00,VWS V14.01,2013-06-03 18:03:00,
2013-06-03 14:08:00,80.7,75.8,29.84,South,177,8.0,13.0,85,0.00,,---,0.00,VWS V14.01,2013-06-03 18:08:00,
2013-06-03 14:13:00,81.1,75.8,29.84,South,176,9.0,10.0,84,0.00,,---,0.00,VWS V14.01,2013-06-03 18:13:00,
2013-06-03 14:18:00,81.3,76.0,29.83,South,176,11.0,12.0,84,0.00,,---,0.00,VWS V14.01,2013-06-03 18:18:00,
2013-06-03 14:23:00,81.3,75.7,29.83,South,176,11.0,13.0,83,0.00,,---,0.00,VWS V14.01,2013-06-03 18:23:00,
2013-06-03 14:28:00,81.1,75.4,29.83,South,176,10.0,11.0,83,0.00,,---,0.00,VWS V14.01,2013-06-03 18:28:00,
2013-06-03 14:33:00,80.8,75.2,29.83,South,176,11.0,12.0,83,0.00,,---,0.00,VWS V14.01,2013-06-03 18:33:00,
2013-06-03 14:38:00,80.6,75.0,29.83,South,176,10.0,11.0,83,0.00,,---,0.00,VWS V14.01,2013-06-03 18:38:00,
2013-06-03 14:43:00,80.8,75.2,29.83,South,176,14.0,14.0,83,0.00,,---,0.00,VWS V14.01,2013-06-03 18:43:00,
2013-06-03 14:48:00,80.8,75.2,29.82,South,176,13.0,14.0,83,0.00,,---,0.00,VWS V14.01,2013-06-03 18:48:00,
2013-06-03 14:53:00,80.7,75.4,29.82,South,176,9.0,15.0,84,0.00,,---,0.00,VWS V14.01,2013-06-03 18:53:00,
2013-06-03 14:58:00,80.6,75.0,29.82,South,176,11.0,11.0,83,0.00,,---,0.00,VWS V14.01,2013-06-03 18:58:00,
2013-06-03 15:03:00,80.5,74.9,29.82,South,176,10.0,12.0,83,0.00,,---,0.00,VWS V14.01,2013-06-03 19:03:00,
2013-06-03 15:08:00,80.4,74.8,29.82,South,176,13.0,16.0,83,0.00,,---,0.00,VWS V14.01,2013-06-03 19:08:00,
2013-06-03 15:13:00,80.2,74.9,29.82,South,176,21.0,22.0,84,0.00,,---,0.00,VWS V14.01,2013-06-03 19:13:00,
2013-06-03 15:18:00,80.2,75.3,29.82,South,176,23.0,25.0,85,0.00,,---,0.00,VWS V14.01,2013-06-03 19:18:00,
2013-06-03 15:23:00,80.1,74.8,29.82,South,177,22.0,25.0,84,0.00,,---,0.00,VWS V14.01,2013-06-03 19:23:00,
2013-06-03 15:28:00,80.0,74.7,29.82,South,177,21.0,23.0,84,0.00,,---,0.00,VWS V14.01,2013-06-03 19:28:00,
2013-06-03 15:33:00,80.2,74.9,29.82,South,177,15.0,22.0,84,0.00,,---,0.00,VWS V14.01,2013-06-03 19:33:00,
2013-06-03 15:38:00,80.1,74.8,29.82,South,176,13.0,22.0,84,0.00,,---,0.00,VWS V14.01,2013-06-03 19:38:00,
2013-06-03 15:43:00,80.3,75.4,29.82,South,176,15.0,19.0,85,0.00,,---,0.00,VWS V14.01,2013-06-03 19:43:00,
2013-06-03 15:48:00,80.1,75.2,29.82,South,177,16.0,20.0,85,0.00,,---,0.00,VWS V14.01,2013-06-03 19:48:00,
2013-06-03 15:53:00,80.0,75.1,29.82,South,176,17.0,19.0,85,0.00,,---,0.00,VWS V14.01,2013-06-03 19:53:00,
2013-06-03 15:58:00,79.9,75.3,29.82,South,177,12.0,19.0,86,0.00,,---,0.00,VWS V14.01,2013-06-03 19:58:00,
2013-06-03 16:03:00,79.7,75.2,29.82,South,177,15.0,17.0,86,0.00,,---,0.00,VWS V14.01,2013-06-03 20:03:00,
2013-06-03 16:08:00,79.5,74.6,29.82,South,177,19.0,19.0,85,0.00,,---,0.00,VWS V14.01,2013-06-03 20:08:00,
2013-06-03 16:13:00,79.4,74.5,29.82,South,177,17.0,21.0,85,0.00,,---,0.00,VWS V14.01,2013-06-03 20:13:00,
2013-06-03 16:18:00,79.6,74.7,29.82,South,177,19.0,19.0,85,0.00,,---,0.00,VWS V14.01,2013-06-03 20:18:00,
2013-06-03 16:23:00,79.6,74.3,29.82,South,177,19.0,19.0,84,0.00,,---,0.00,VWS V14.01,2013-06-03 20:23:00,
2013-06-03 16:28:00,79.7,73.7,29.82,South,177,10.0,14.0,82,0.00,,---,0.00,VWS V14.01,2013-06-03 20:28:00,
2013-06-03 16:33:00,80.2,74.2,29.82,South,177,8.0,15.0,82,0.00,,---,0.00,VWS V14.01,2013-06-03 20:33:00,
2013-06-03 16:38:00,80.6,74.2,29.82,South,177,0.0,10.0,81,0.00,,---,0.00,VWS V14.01,2013-06-03 20:38:00,
2013-06-03 16:43:00,80.6,73.5,29.82,South,177,18.0,20.0,79,0.00,,---,0.00,VWS V14.01,2013-06-03 20:43:00,
2013-06-03 16:48:00,80.1,73.0,29.82,South,176,16.0,16.0,79,0.00,,---,0.00,VWS V14.01,2013-06-03 20:48:00,
2013-06-03 16:53:00,79.6,72.5,29.82,South,177,15.0,20.0,79,0.00,,---,0.00,VWS V14.01,2013-06-03 20:53:00,
2013-06-03 16:58:00,79.4,72.3,29.82,South,177,9.0,15.0,79,0.00,,---,0.00,VWS V14.01,2013-06-03 20:58:00,
2013-06-03 17:03:00,79.5,72.8,29.82,South,176,0.0,0.0,80,0.00,,---,0.00,VWS V14.01,2013-06-03 21:03:00,
2013-06-03 17:08:00,79.6,72.5,29.82,South,177,0.0,0.0,79,0.00,,---,0.00,VWS V14.01,2013-06-03 21:08:00,
2013-06-03 17:13:00,79.6,72.9,29.82,South,176,0.0,0.0,80,0.00,,---,0.00,VWS V14.01,2013-06-03 21:13:00,
2013-06-03 17:18:00,79.4,72.7,29.82,South,177,10.0,10.0,80,0.00,,---,0.00,VWS V14.01,2013-06-03 21:18:00,
2013-06-03 17:23:00,79.0,73.0,29.82,South,177,9.0,10.0,82,0.00,,---,0.00,VWS V14.01,2013-06-03 21:23:00,
2013-06-03 17:28:00,78.9,73.3,29.82,South,177,9.0,10.0,83,0.00,,---,0.00,VWS V14.01,2013-06-03 21:28:00,
2013-06-03 17:33:00,78.7,73.5,29.82,South,177,9.0,11.0,84,0.00,,---,0.00,VWS V14.01,2013-06-03 21:33:00,
2013-06-03 17:38:00,78.6,73.7,29.82,South,177,0.0,0.0,85,0.00,,---,0.00,VWS V14.01,2013-06-03 21:38:00,
2013-06-03 17:43:00,78.7,73.8,29.82,South,177,8.0,9.0,85,0.00,,---,0.00,VWS V14.01,2013-06-03 21:43:00,
2013-06-03 17:48:00,78.9,74.0,29.82,South,177,0.0,0.0,85,0.00,,---,0.00,VWS V14.01,2013-06-03 21:48:00,
2013-06-03 17:53:00,79.1,74.2,29.82,South,177,0.0,0.0,85,0.00,,---,0.00,VWS V14.01,2013-06-03 21:53:00,
2013-06-03 17:58:00,79.3,74.4,29.82,South,177,0.0,0.0,85,0.00,,---,0.00,VWS V14.01,2013-06-03 21:58:00,
2013-06-03 18:03:00,79.3,74.4,29.82,South,177,0.0,1.0,85,0.00,,---,0.00,VWS V14.01,2013-06-03 22:03:00,
2013-06-03 18:08:00,79.4,74.5,29.82,South,177,11.0,11.0,85,0.00,,---,0.00,VWS V14.01,2013-06-03 22:08:00,
2013-06-03 18:13:00,79.2,74.3,29.82,South,177,7.0,11.0,85,0.00,,---,0.00,VWS V14.01,2013-06-03 22:13:00,
2013-06-03 18:18:00,79.1,74.2,29.82,South,176,5.0,11.0,85,0.00,,---,0.00,VWS V14.01,2013-06-03 22:18:00,
2013-06-03 18:23:00,79.0,74.1,29.82,South,177,10.0,11.0,85,0.00,,---,0.00,VWS V14.01,2013-06-03 22:23:00,
2013-06-03 18:28:00,78.8,73.9,29.82,South,177,9.0,12.0,85,0.00,,---,0.00,VWS V14.01,2013-06-03 22:28:00,
2013-06-03 18:33:00,78.7,74.2,29.82,South,177,5.0,10.0,86,0.00,,---,0.00,VWS V14.01,2013-06-03 22:33:00,
2013-06-03 18:38:00,78.7,74.2,29.82,South,177,5.0,11.0,86,0.00,,---,0.00,VWS V14.01,2013-06-03 22:38:00,
2013-06-03 18:43:00,78.7,74.2,29.82,South,177,5.0,10.0,86,0.00,,---,0.00,VWS V14.01,2013-06-03 22:43:00,
2013-06-03 18:48:00,78.8,74.3,29.83,South,177,0.0,0.0,86,0.00,,---,0.00,VWS V14.01,2013-06-03 22:48:00,
2013-06-03 18:53:00,78.5,73.3,29.83,South,176,0.0,0.0,84,0.00,,---,0.00,VWS V14.01,2013-06-03 22:53:00,
2013-06-03 18:58:00,78.4,73.2,29.83,South,177,0.0,0.0,84,0.00,,---,0.00,VWS V14.01,2013-06-03 22:58:00,
2013-06-03 19:03:00,78.5,73.3,29.83,South,177,0.0,0.0,84,0.00,,---,0.00,VWS V14.01,2013-06-03 23:03:00,
2013-06-03 19:08:00,78.5,73.6,29.83,South,177,0.0,8.0,85,0.00,,---,0.00,VWS V14.01,2013-06-03 23:08:00,
2013-06-03 19:13:00,78.2,73.3,29.83,South,177,0.0,0.0,85,0.00,,---,0.00,VWS V14.01,2013-06-03 23:13:00,
2013-06-03 19:18:00,77.9,73.0,29.84,South,177,0.0,0.0,85,0.00,,---,0.00,VWS V14.01,2013-06-03 23:18:00,
2013-06-03 19:23:00,77.7,73.2,29.84,South,177,0.0,0.0,86,0.00,,---,0.00,VWS V14.01,2013-06-03 23:23:00,
2013-06-03 19:28:00,77.6,73.4,29.84,South,177,0.0,0.0,87,0.00,,---,0.00,VWS V14.01,2013-06-03 23:28:00,
2013-06-03 19:33:00,77.3,73.1,29.84,South,177,0.0,0.0,87,0.02,,---,0.02,VWS V14.01,2013-06-03 23:33:00,
2013-06-03 19:38:00,77.0,73.2,29.84,South,176,0.0,0.0,88,0.02,,---,0.02,VWS V14.01,2013-06-03 23:38:00,
2013-06-03 19:43:00,76.8,73.0,29.84,South,177,0.0,0.0,88,0.02,,---,0.02,VWS V14.01,2013-06-03 23:43:00,
2013-06-03 19:48:00,76.7,73.2,29.85,South,177,0.0,0.0,89,0.02,,---,0.02,VWS V14.01,2013-06-03 23:48:00,
2013-06-03 19:53:00,76.7,73.2,29.85,South,177,0.0,0.0,89,0.02,,---,0.02,VWS V14.01,2013-06-03 23:53:00,
2013-06-03 19:58:00,76.5,73.3,29.85,South,177,0.0,0.0,90,0.02,,---,0.02,VWS V14.01,2013-06-03 23:58:00,
2013-06-03 20:03:00,76.4,73.2,29.85,South,176,0.0,0.0,90,0.02,,---,0.02,VWS V14.01,2013-06-04 00:03:00,
2013-06-03 20:08:00,76.2,73.1,29.85,South,177,0.0,0.0,90,0.02,,---,0.02,VWS V14.01,2013-06-04 00:08:00,
2013-06-03 20:13:00,76.2,73.1,29.85,South,176,0.0,0.0,90,0.02,,---,0.02,VWS V14.01,2013-06-04 00:13:00,
2013-06-03 20:18:00,76.2,73.4,29.86,South,177,0.0,0.0,91,0.02,,---,0.02,VWS V14.01,2013-06-04 00:18:00,
2013-06-03 20:23:00,76.2,73.4,29.86,South,176,0.0,0.0,91,0.02,,---,0.02,VWS V14.01,2013-06-04 00:23:00,
2013-06-03 20:28:00,76.2,73.4,29.86,South,177,0.0,0.0,91,0.02,,---,0.02,VWS V14.01,2013-06-04 00:28:00,
2013-06-03 20:33:00,76.4,73.6,29.86,South,177,0.0,0.0,91,0.02,,---,0.02,VWS V14.01,2013-06-04 00:33:00,
2013-06-03 20:38:00,76.5,73.7,29.86,South,177,0.0,0.0,91,0.00,,---,0.02,VWS V14.01,2013-06-04 00:38:00,
2013-06-03 20:43:00,76.5,73.7,29.86,South,176,0.0,0.0,91,0.00,,---,0.02,VWS V14.01,2013-06-04 00:43:00,
2013-06-03 20:48:00,76.6,73.8,29.87,South,177,0.0,0.0,91,0.00,,---,0.02,VWS V14.01,2013-06-04 00:48:00,
2013-06-03 20:53:00,76.5,73.7,29.87,South,177,0.0,0.0,91,0.00,,---,0.02,VWS V14.01,2013-06-04 00:53:00,
2013-06-03 20:58:00,76.4,73.6,29.87,South,177,0.0,0.0,91,0.00,,---,0.02,VWS V14.01,2013-06-04 00:58:00,
2013-06-03 21:03:00,76.4,73.6,29.87,South,176,0.0,0.0,91,0.00,,---,0.02,VWS V14.01,2013-06-04 01:03:00,
2013-06-03 21:08:00,76.4,73.6,29.87,South,177,0.0,0.0,91,0.00,,---,0.02,VWS V14.01,2013-06-04 01:08:00,
2013-06-03 21:13:00,76.4,73.6,29.87,South,177,0.0,0.0,91,0.00,,---,0.02,VWS V14.01,2013-06-04 01:13:00,
2013-06-03 21:18:00,76.4,73.6,29.87,South,177,0.0,0.0,91,0.00,,---,0.02,VWS V14.01,2013-06-04 01:18:00,
2013-06-03 21:23:00,76.3,73.5,29.87,South,176,0.0,0.0,91,0.00,,---,0.02,VWS V14.01,2013-06-04 01:23:00,
2013-06-03 21:28:00,76.3,73.5,29.87,South,177,0.0,0.0,91,0.00,,---,0.02,VWS V14.01,2013-06-04 01:28:00,
2013-06-03 21:33:00,76.4,73.6,29.88,South,177,0.0,0.0,91,0.00,,---,0.02,VWS V14.01,2013-06-04 01:33:00,
2013-06-03 21:38:00,76.4,73.6,29.88,South,177,0.0,0.0,91,0.00,,---,0.02,VWS V14.01,2013-06-04 01:38:00,
2013-06-03 21:43:00,76.4,73.6,29.88,South,177,0.0,0.0,91,0.00,,---,0.02,VWS V14.01,2013-06-04 01:43:00,
2013-06-03 21:48:00,76.3,73.5,29.88,South,177,0.0,0.0,91,0.00,,---,0.02,VWS V14.01,2013-06-04 01:48:00,
2013-06-03 21:53:00,76.3,73.2,29.88,South,177,0.0,0.0,90,0.00,,---,0.02,VWS V14.01,2013-06-04 01:53:00,
2013-06-03 21:58:00,76.2,73.1,29.88,South,177,0.0,0.0,90,0.00,,---,0.02,VWS V14.01,2013-06-04 01:58:00,
2013-06-03 22:03:00,76.3,73.2,29.90,South,177,0.0,0.0,90,0.00,,---,0.02,VWS V14.01,2013-06-04 02:03:00,
2013-06-03 22:08:00,76.4,73.2,29.90,South,176,0.0,0.0,90,0.00,,---,0.02,VWS V14.01,2013-06-04 02:08:00,
2013-06-03 22:13:00,76.5,73.3,29.90,South,177,0.0,0.0,90,0.00,,---,0.02,VWS V14.01,2013-06-04 02:13:00,
2013-06-03 22:18:00,76.5,73.3,29.90,South,176,0.0,0.0,90,0.00,,---,0.02,VWS V14.01,2013-06-04 02:18:00,
2013-06-03 22:23:00,76.6,73.4,29.90,South,177,0.0,0.0,90,0.00,,---,0.02,VWS V14.01,2013-06-04 02:23:00,
2013-06-03 22:28:00,76.8,73.7,29.90,South,177,0.0,0.0,90,0.00,,---,0.02,VWS V14.01,2013-06-04 02:28:00,
2013-06-03 22:33:00,76.8,73.7,29.91,South,177,0.0,0.0,90,0.00,,---,0.02,VWS V14.01,2013-06-04 02:33:00,
2013-06-03 22:38:00,76.7,73.6,29.91,South,176,0.0,0.0,90,0.00,,---,0.02,VWS V14.01,2013-06-04 02:38:00,
2013-06-03 22:43:00,76.6,73.4,29.91,South,177,0.0,0.0,90,0.00,,---,0.02,VWS V14.01,2013-06-04 02:43:00,
2013-06-03 22:48:00,76.3,73.2,29.92,South,177,0.0,0.0,90,0.00,,---,0.02,VWS V14.01,2013-06-04 02:48:00,
2013-06-03 22:53:00,76.1,73.0,29.92,South,177,0.0,0.0,90,0.00,,---,0.02,VWS V14.01,2013-06-04 02:53:00,
2013-06-03 22:58:00,75.8,72.7,29.92,South,177,0.0,2.0,90,0.00,,---,0.02,VWS V14.01,2013-06-04 02:58:00,
2013-06-03 23:03:00,75.5,72.7,29.91,South,177,0.0,1.0,91,0.00,,---,0.02,VWS V14.01,2013-06-04 03:03:00,
2013-06-03 23:08:00,75.3,72.5,29.91,South,176,0.0,0.0,91,0.00,,---,0.02,VWS V14.01,2013-06-04 03:08:00,
2013-06-03 23:13:00,75.2,72.4,29.91,South,177,1.0,1.0,91,0.00,,---,0.02,VWS V14.01,2013-06-04 03:13:00,
2013-06-03 23:18:00,75.1,72.6,29.91,South,177,0.0,1.0,92,0.00,,---,0.02,VWS V14.01,2013-06-04 03:18:00,
2013-06-03 23:23:00,75.0,72.5,29.91,South,176,0.0,1.0,92,0.00,,---,0.02,VWS V14.01,2013-06-04 03:23:00,
2013-06-03 23:28:00,74.9,72.4,29.91,South,177,0.0,0.0,92,0.00,,---,0.02,VWS V14.01,2013-06-04 03:28:00,
2013-06-03 23:33:00,74.9,72.4,29.91,South,177,0.0,0.0,92,0.00,,---,0.02,VWS V14.01,2013-06-04 03:33:00,
2013-06-03 23:38:00,75.2,72.7,29.91,South,177,0.0,0.0,92,0.00,,---,0.02,VWS V14.01,2013-06-04 03:38:00,
2013-06-03 23:43:00,75.1,72.6,29.91,South,177,0.0,1.0,92,0.00,,---,0.02,VWS V14.01,2013-06-04 03:43:00,
2013-06-03 23:48:00,75.1,72.6,29.91,South,177,0.0,0.0,92,0.00,,---,0.02,VWS V14.01,2013-06-04 03:48:00,
2013-06-03 23:54:00,75.2,72.7,29.91,South,177,0.0,0.0,92,0.00,,---,0.02,VWS V14.01,2013-06-04 03:54:00,
2013-06-03 23:59:00,75.1,72.6,29.91,South,177,0.0,0.0,92,0.00,,---,0.02,VWS V14.01,2013-06-04 03:59:00,